Time;durP1;ratioP1;P1;durP2;ratioP2;P2;SDS_P1;SDS_P2;PMS_P1;PMS_P2;Temp;Humidity;BMP_temperature;BMP_pressure;BME280_temperature;BME280_humidity;BME280_pressure;Samples;Min_cycle;Max_cycle;Signal;HPM_P1;HPM_P2
2023/09/25 00:00:07;;;;;;;6.23;4.60;;;13.80;99.90;;;;;;5038150;28;20464;-54
2023/09/25 00:02:36;;;;;;;7.70;4.93;;;13.90;99.90;;;;;;5038157;28;20445;-54
2023/09/25 00:05:04;;;;;;;9.83;5.10;;;13.80;99.90;;;;;;5038374;28;20471;-57
2023/09/25 00:07:31;;;;;;;5.33;4.23;;;13.80;99.90;;;;;;5038539;28;20406;-57
2023/09/25 00:09:58;;;;;;;6.80;4.93;;;13.80;99.90;;;;;;5038334;28;20453;-56
2023/09/25 00:12:25;;;;;;;5.60;4.53;;;13.50;99.90;;;;;;5038413;28;20405;-55
2023/09/25 00:14:52;;;;;;;6.80;4.63;;;;;;;;;;5038180;28;20456;-55
2023/09/25 00:17:19;;;;;;;6.10;4.60;;;;;;;;;;5038266;28;20398;-56
2023/09/25 00:19:48;;;;;;;5.97;3.93;;;13.70;99.90;;;;;;5042040;28;20446;-57
2023/09/25 00:22:15;;;;;;;4.80;3.97;;;13.60;99.90;;;;;;5042048;28;20448;-52
2023/09/25 00:24:44;;;;;;;6.80;4.63;;;13.60;99.90;;;;;;5041940;28;20444;-58
2023/09/25 00:27:16;;;;;;;5.77;4.27;;;13.40;99.90;;;;;;5042106;28;20401;-53
2023/09/25 00:29:44;;;;;;;7.90;4.70;;;13.60;99.90;;;;;;5041913;28;20440;-49
2023/09/25 00:32:13;;;;;;;6.20;5.07;;;13.40;99.90;;;;;;5041972;28;20421;-54
2023/09/25 00:34:40;;;;;;;5.00;4.50;;;;;;;;;;5041731;28;20413;-54
2023/09/25 00:37:08;;;;;;;5.97;4.80;;;13.40;99.90;;;;;;5041798;28;20434;-52
2023/09/25 00:39:35;;;;;;;6.50;5.30;;;;;;;;;;5041651;28;20421;-57
2023/09/25 00:42:02;;;;;;;8.37;5.20;;;13.50;99.90;;;;;;5041627;28;20441;-54
2023/09/25 00:44:29;;;;;;;7.07;5.07;;;13.40;99.90;;;;;;5041579;28;20413;-54
2023/09/25 00:46:58;;;;;;;7.40;4.83;;;13.50;99.90;;;;;;5041685;28;20440;-52
2023/09/25 00:49:25;;;;;;;7.40;5.30;;;13.20;99.90;;;;;;5041631;28;20417;-55
2023/09/25 00:51:52;;;;;;;7.90;4.93;;;13.40;99.90;;;;;;5041571;28;20437;-55
2023/09/25 00:54:21;;;;;;;7.67;4.47;;;13.40;99.90;;;;;;5041586;28;20412;-55
2023/09/25 00:56:52;;;;;;;5.97;5.07;;;13.30;99.90;;;;;;5041496;28;20410;-53
2023/09/25 00:59:21;;;;;;;10.57;4.53;;;13.30;99.90;;;;;;5041462;28;20414;-54
2023/09/25 01:01:48;;;;;;;8.53;5.77;;;13.30;99.90;;;;;;5041267;28;20515;-53
2023/09/25 01:04:15;;;;;;;4.73;4.23;;;13.20;99.90;;;;;;5041370;28;20410;-55
2023/09/25 01:06:48;;;;;;;12.53;5.30;;;13.20;99.90;;;;;;5041164;28;20433;-54
2023/09/25 01:09:15;;;;;;;7.27;4.20;;;13.40;99.90;;;;;;5041100;28;20416;-57
2023/09/25 01:11:43;;;;;;;6.80;4.80;;;13.20;99.90;;;;;;5041153;28;20465;-54
2023/09/25 01:14:10;;;;;;;6.30;5.33;;;13.10;99.90;;;;;;5040990;28;20468;-55
2023/09/25 01:16:38;;;;;;;6.60;4.87;;;13.20;99.90;;;;;;5041017;28;20437;-54
2023/09/25 01:19:05;;;;;;;6.17;4.90;;;13.20;99.90;;;;;;5041055;28;20469;-54
2023/09/25 01:21:34;;;;;;;6.43;4.27;;;13.10;99.90;;;;;;5040893;28;20479;-56
2023/09/25 01:24:03;;;;;;;6.33;5.03;;;13.10;99.90;;;;;;5040909;28;20417;-54
2023/09/25 01:26:30;;;;;;;8.47;5.60;;;13.10;99.90;;;;;;5040830;28;20444;-51
2023/09/25 01:28:56;;;;;;;6.50;5.10;;;13.10;99.90;;;;;;5040786;28;20417;-53
2023/09/25 01:31:26;;;;;;;6.00;4.23;;;13.10;99.90;;;;;;5040831;28;20437;-59
2023/09/25 01:33:56;;;;;;;8.33;5.40;;;14.40;99.90;;;;;;5040796;28;20432;-55
2023/09/25 01:36:23;;;;;;;5.77;4.60;;;13.10;99.90;;;;;;5040629;28;20446;-56
2023/09/25 01:38:50;;;;;;;5.60;4.10;;;13.20;99.90;;;;;;5040604;28;20413;-55
2023/09/25 01:41:25;;;;;;;7.93;5.07;;;13.00;99.90;;;;;;5040469;28;20442;-54
2023/09/25 01:43:52;;;;;;;5.00;4.47;;;12.90;99.90;;;;;;5040614;28;20424;-52
2023/09/25 01:46:19;;;;;;;5.80;4.57;;;12.80;99.90;;;;;;5040351;28;20471;-58
2023/09/25 01:48:46;;;;;;;12.57;5.70;;;13.00;99.90;;;;;;5040479;28;20485;-56
2023/09/25 01:51:13;;;;;;;6.10;4.33;;;12.90;99.90;;;;;;5038970;28;20460;-57
2023/09/25 01:53:45;;;;;;;6.33;4.37;;;12.90;99.90;;;;;;5038652;28;20437;-58
2023/09/25 01:56:13;;;;;;;6.37;4.73;;;12.90;99.90;;;;;;5038650;28;20512;-58
2023/09/25 01:58:44;;;;;;;7.33;4.80;;;12.90;99.90;;;;;;5038598;28;20467;-57
2023/09/25 02:01:11;;;;;;;11.13;5.60;;;12.90;99.90;;;;;;5038599;28;20469;-58
2023/09/25 02:03:38;;;;;;;5.47;4.43;;;12.90;99.90;;;;;;5038084;28;20441;-57
2023/09/25 02:06:05;;;;;;;11.67;5.60;;;12.90;99.90;;;;;;5037967;28;20488;-60
2023/09/25 02:08:32;;;;;;;9.60;5.63;;;12.90;99.90;;;;;;5038606;28;20449;-59
2023/09/25 02:11:01;;;;;;;7.03;4.90;;;12.80;99.90;;;;;;5038094;28;20518;-58
2023/09/25 02:13:28;;;;;;;6.40;4.97;;;13.00;99.90;;;;;;5038210;28;20441;-58
2023/09/25 02:15:56;;;;;;;6.33;4.43;;;12.70;99.90;;;;;;5037971;28;20430;-57
2023/09/25 02:18:23;;;;;;;9.30;5.67;;;12.90;99.90;;;;;;5038023;28;20409;-58
2023/09/25 02:20:49;;;;;;;6.67;4.70;;;12.60;99.90;;;;;;5037835;28;20451;-57
2023/09/25 02:23:18;;;;;;;6.30;4.70;;;;;;;;;;5037781;28;20477;-59
2023/09/25 02:25:45;;;;;;;8.47;5.30;;;12.70;99.90;;;;;;5037803;28;20433;-59
2023/09/25 02:28:12;;;;;;;4.43;3.70;;;12.70;99.90;;;;;;5037586;28;20457;-60
2023/09/25 02:30:39;;;;;;;7.87;5.30;;;12.40;99.90;;;;;;5037243;28;20445;-58
2023/09/25 02:33:07;;;;;;;6.40;4.67;;;12.70;99.90;;;;;;5037557;28;20436;-59
2023/09/25 02:35:35;;;;;;;9.53;5.87;;;12.80;99.90;;;;;;5038258;28;20464;-58
2023/09/25 02:38:02;;;;;;;5.93;4.70;;;12.70;99.90;;;;;;5037746;28;20472;-58
2023/09/25 02:40:28;;;;;;;12.03;5.77;;;12.30;99.90;;;;;;5036959;28;20453;-59
2023/09/25 02:42:55;;;;;;;6.97;5.10;;;12.50;99.90;;;;;;5037312;28;20483;-59
2023/09/25 02:45:22;;;;;;;7.70;5.30;;;12.10;99.90;;;;;;5037849;28;20540;-56
2023/09/25 02:47:49;;;;;;;7.17;5.53;;;12.60;99.90;;;;;;5037385;28;20433;-60
2023/09/25 02:50:17;;;;;;;9.20;5.80;;;12.60;99.90;;;;;;5037257;28;20496;-58
2023/09/25 02:52:44;;;;;;;6.23;5.10;;;12.60;99.90;;;;;;5036546;28;20473;-59
2023/09/25 02:55:12;;;;;;;8.67;7.50;;;12.30;99.90;;;;;;5037391;28;20505;-58
2023/09/25 02:57:38;;;;;;;7.47;5.67;;;12.60;99.90;;;;;;5037712;28;20480;-59
2023/09/25 03:00:10;;;;;;;6.20;5.47;;;12.40;99.90;;;;;;5038199;28;20484;-56
2023/09/25 03:02:40;;;;;;;8.10;5.20;;;12.50;99.90;;;;;;5037454;28;20489;-56
2023/09/25 03:05:08;;;;;;;8.10;5.50;;;;;;;;;;5037696;28;20504;-57
2023/09/25 03:07:36;;;;;;;8.90;5.80;;;13.10;99.90;;;;;;5037237;28;20453;-59
2023/09/25 03:10:04;;;;;;;5.80;4.80;;;12.50;99.90;;;;;;5036811;28;20437;-57
2023/09/25 03:12:30;;;;;;;13.57;5.63;;;12.70;99.90;;;;;;5036822;28;20465;-57
2023/09/25 03:14:58;;;;;;;5.63;5.07;;;12.80;99.90;;;;;;5036227;28;20449;-56
2023/09/25 03:17:25;;;;;;;6.23;4.90;;;12.60;99.90;;;;;;5036090;28;20445;-58
2023/09/25 03:19:52;;;;;;;6.50;5.80;;;12.70;99.90;;;;;;5036902;28;20465;-57
2023/09/25 03:22:20;;;;;;;5.50;4.80;;;;;;;;;;5036716;28;20493;-53
2023/09/25 03:24:49;;;;;;;11.33;5.10;;;12.50;99.90;;;;;;5036762;28;20451;-52
2023/09/25 03:27:18;;;;;;;9.10;5.33;;;12.40;99.90;;;;;;5036496;28;20465;-57
2023/09/25 03:29:46;;;;;;;5.87;4.87;;;12.50;99.90;;;;;;5036740;28;20440;-58
2023/09/25 03:32:12;;;;;;;5.70;4.30;;;12.20;99.90;;;;;;5036839;28;20469;-59
2023/09/25 03:34:40;;;;;;;10.43;6.40;;;12.50;99.90;;;;;;5035868;28;20488;-60
2023/09/25 03:37:07;;;;;;;7.53;5.60;;;12.00;99.90;;;;;;5036544;28;20453;-57
2023/09/25 03:39:34;;;;;;;7.70;5.77;;;;;;;;;;5036025;28;20425;-59
2023/09/25 03:42:02;;;;;;;6.30;5.20;;;12.20;99.90;;;;;;5035739;28;20464;-59
2023/09/25 03:44:29;;;;;;;7.20;5.60;;;12.40;99.90;;;;;;5036847;28;20437;-59
2023/09/25 03:47:00;;;;;;;6.73;4.77;;;12.00;99.90;;;;;;5036511;28;20441;-58
2023/09/25 03:49:27;;;;;;;5.80;4.60;;;12.20;99.90;;;;;;5037073;28;20489;-59
2023/09/25 03:51:56;;;;;;;8.80;5.60;;;12.00;99.90;;;;;;5036937;28;20472;-56
2023/09/25 03:54:25;;;;;;;5.30;4.80;;;12.30;99.90;;;;;;5040317;28;20432;-59
2023/09/25 03:56:52;;;;;;;10.40;4.67;;;;;;;;;;5040543;28;20468;-58
2023/09/25 03:59:21;;;;;;;7.77;5.97;;;12.30;99.90;;;;;;5041375;28;20452;-59
2023/09/25 04:01:48;;;;;;;6.13;4.33;;;;;;;;;;5040924;28;20479;-56
2023/09/25 04:04:15;;;;;;;7.27;5.40;;;12.00;99.90;;;;;;5040704;28;20433;-53
2023/09/25 04:06:50;;;;;;;8.47;4.77;;;12.10;99.90;;;;;;5040498;28;20488;-58
2023/09/25 04:09:17;;;;;;;7.00;4.80;;;12.40;99.90;;;;;;5040606;28;20433;-59
2023/09/25 04:11:44;;;;;;;6.80;4.87;;;12.20;99.90;;;;;;5040481;28;20460;-58
2023/09/25 04:14:11;;;;;;;9.90;6.30;;;12.00;99.90;;;;;;5040434;28;20468;-54
2023/09/25 04:16:39;;;;;;;8.77;5.70;;;12.10;99.90;;;;;;5040588;28;20441;-52
2023/09/25 04:19:07;;;;;;;6.83;4.30;;;;;;;;;;5040194;28;20484;-58
2023/09/25 04:21:34;;;;;;;8.63;6.30;;;;;;;;;;5039815;28;20429;-57
2023/09/25 04:24:01;;;;;;;7.83;4.50;;;12.10;99.90;;;;;;5040225;28;20488;-59
2023/09/25 04:26:29;;;;;;;7.93;6.47;;;12.10;99.90;;;;;;5039685;28;20461;-58
2023/09/25 04:28:57;;;;;;;6.60;5.30;;;;;;;;;;5039816;28;20480;-55
2023/09/25 04:31:24;;;;;;;12.27;6.20;;;;;;;;;;5039520;28;20461;-54
2023/09/25 04:33:52;;;;;;;5.73;4.50;;;12.00;99.90;;;;;;5038920;28;20484;-60
2023/09/25 04:36:19;;;;;;;10.27;5.57;;;12.10;99.90;;;;;;5039307;28;20449;-56
2023/09/25 04:38:46;;;;;;;8.47;5.30;;;;;;;;;;5039599;28;20468;-57
2023/09/25 04:41:13;;;;;;;8.93;5.10;;;11.90;99.90;;;;;;5039597;28;20444;-59
2023/09/25 04:43:41;;;;;;;7.53;5.63;;;12.00;99.90;;;;;;5039358;28;20484;-54
2023/09/25 04:46:10;;;;;;;7.70;6.27;;;11.90;99.90;;;;;;5039214;28;20441;-59
2023/09/25 04:48:40;;;;;;;6.40;5.50;;;;;;;;;;5039835;28;20469;-58
2023/09/25 04:51:08;;;;;;;6.63;5.17;;;12.00;99.90;;;;;;5039312;28;20429;-58
2023/09/25 04:53:36;;;;;;;9.10;6.27;;;12.00;99.90;;;;;;5039026;28;20534;-58
2023/09/25 04:56:03;;;;;;;13.50;4.80;;;;;;;;;;5039046;28;20441;-58
2023/09/25 04:58:30;;;;;;;6.77;5.67;;;12.00;99.90;;;;;;5039152;28;20469;-58
2023/09/25 05:00:58;;;;;;;8.50;6.33;;;12.10;99.90;;;;;;5039046;28;20437;-59
2023/09/25 05:03:25;;;;;;;14.17;6.10;;;12.10;99.90;;;;;;5038471;28;20493;-59
2023/09/25 05:05:52;;;;;;;7.97;5.90;;;12.10;99.90;;;;;;5039139;28;20430;-57
2023/09/25 05:08:23;;;;;;;9.40;5.43;;;12.00;99.90;;;;;;5039352;28;20499;-59
2023/09/25 05:10:50;;;;;;;8.00;5.50;;;;;;;;;;5038746;28;20476;-56
2023/09/25 05:13:17;;;;;;;8.27;5.63;;;12.20;99.90;;;;;;5039331;28;20445;-59
2023/09/25 05:15:44;;;;;;;8.50;6.00;;;11.80;99.90;;;;;;5038918;28;20433;-59
2023/09/25 05:18:11;;;;;;;8.90;5.97;;;12.00;99.90;;;;;;5038900;28;20774;-55
2023/09/25 05:20:38;;;;;;;10.03;6.23;;;12.20;99.90;;;;;;5039417;28;20433;-59
2023/09/25 05:23:05;;;;;;;9.00;5.27;;;12.00;99.90;;;;;;5038323;28;20491;-58
2023/09/25 05:25:34;;;;;;;15.50;6.40;;;12.50;99.90;;;;;;5038558;28;20453;-60
2023/09/25 05:28:01;;;;;;;9.43;6.20;;;;;;;;;;5038962;28;20449;-59
2023/09/25 05:30:28;;;;;;;14.87;7.00;;;12.60;99.90;;;;;;5038815;28;20472;-57
2023/09/25 05:32:55;;;;;;;8.87;5.97;;;12.20;99.90;;;;;;5038604;28;20433;-58
2023/09/25 05:35:22;;;;;;;9.80;6.17;;;11.90;99.90;;;;;;5038517;28;20479;-59
2023/09/25 05:37:49;;;;;;;8.10;5.93;;;12.20;99.90;;;;;;5038516;28;20468;-58
2023/09/25 05:40:16;;;;;;;7.93;6.50;;;12.20;99.90;;;;;;5038280;28;20480;-57
2023/09/25 05:42:46;;;;;;;11.37;6.20;;;12.30;99.90;;;;;;5037749;28;20485;-59
2023/09/25 05:45:17;;;;;;;16.87;6.97;;;12.30;99.90;;;;;;5038246;28;20436;-59
2023/09/25 05:47:44;;;;;;;7.23;5.37;;;12.20;99.90;;;;;;5037477;28;20453;-58
2023/09/25 05:50:12;;;;;;;11.03;6.60;;;;;;;;;;5037671;28;20429;-59
2023/09/25 05:52:40;;;;;;;9.60;6.37;;;12.40;99.90;;;;;;5037767;28;20437;-58
2023/09/25 05:55:08;;;;;;;22.50;7.10;;;12.40;99.90;;;;;;5037739;28;20472;-59
2023/09/25 05:57:35;;;;;;;8.50;6.17;;;12.30;99.90;;;;;;5038045;28;20525;-59
2023/09/25 06:00:10;;;;;;;8.80;6.87;;;12.40;99.90;;;;;;5037829;28;20472;-59
2023/09/25 06:02:38;;;;;;;8.10;6.43;;;12.50;99.90;;;;;;5037972;28;20443;-60
2023/09/25 06:05:06;;;;;;;9.13;6.13;;;12.60;99.90;;;;;;5037917;28;20499;-56
2023/09/25 06:07:35;;;;;;;12.80;8.23;;;12.80;99.90;;;;;;5037450;28;20481;-58
2023/09/25 06:10:02;;;;;;;12.13;6.93;;;13.00;99.90;;;;;;5037622;28;20527;-58
2023/09/25 06:12:29;;;;;;;9.80;6.10;;;12.50;99.90;;;;;;5037569;28;20488;-60
2023/09/25 06:14:56;;;;;;;11.80;6.40;;;13.20;99.90;;;;;;5036939;28;20496;-60
2023/09/25 06:17:26;;;;;;;12.20;6.70;;;13.40;99.90;;;;;;5037452;28;20468;-59
2023/09/25 06:19:54;;;;;;;14.93;7.93;;;;;;;;;;5015912;28;20477;-60
2023/09/25 06:22:21;;;;;;;12.17;7.43;;;12.20;99.90;;;;;;5015534;28;20797;-58
2023/09/25 06:24:49;;;;;;;9.20;6.93;;;12.80;99.90;;;;;;5015602;28;20489;-57
2023/09/25 06:27:16;;;;;;;9.63;7.03;;;12.80;99.90;;;;;;5015793;28;20445;-61
2023/09/25 06:29:43;;;;;;;7.80;5.80;;;12.80;99.90;;;;;;5015504;28;21036;-60
2023/09/25 06:32:10;;;;;;;9.07;6.50;;;13.10;99.90;;;;;;5037880;28;20438;-53
2023/09/25 06:34:39;;;;;;;9.33;6.80;;;13.20;99.90;;;;;;5039438;28;20468;-55
2023/09/25 06:37:06;;;;;;;10.10;5.93;;;;;;;;;;5039505;28;20421;-53
2023/09/25 06:39:34;;;;;;;9.47;6.30;;;13.30;99.90;;;;;;5039432;28;20440;-50
2023/09/25 06:42:01;;;;;;;9.23;6.20;;;;;;;;;;5039316;28;20418;-55
2023/09/25 06:44:33;;;;;;;9.73;5.47;;;13.10;99.90;;;;;;5039204;28;20483;-55
2023/09/25 06:47:03;;;;;;;11.53;6.10;;;13.10;99.90;;;;;;5039228;28;20421;-56
2023/09/25 06:49:32;;;;;;;10.63;6.70;;;13.30;99.90;;;;;;5039091;28;20425;-57
2023/09/25 06:52:00;;;;;;;10.03;7.00;;;13.10;99.90;;;;;;5039243;28;20405;-50
2023/09/25 06:54:27;;;;;;;8.53;5.90;;;13.30;99.90;;;;;;5039078;28;20422;-54
2023/09/25 06:56:54;;;;;;;13.57;7.53;;;13.90;99.90;;;;;;5039157;28;20413;-52
2023/09/25 06:59:21;;;;;;;8.20;5.97;;;13.40;99.90;;;;;;5038992;28;20429;-57
2023/09/25 07:01:47;;;;;;;12.50;7.40;;;13.60;99.90;;;;;;5038909;28;20448;-55
2023/09/25 07:04:19;;;;;;;8.53;6.70;;;13.80;99.90;;;;;;5038955;28;20452;-52
2023/09/25 07:06:46;;;;;;;8.23;6.47;;;13.60;99.90;;;;;;5039179;28;20406;-55
2023/09/25 07:09:14;;;;;;;7.20;6.13;;;13.80;99.90;;;;;;5038963;28;20433;-52
2023/09/25 07:11:41;;;;;;;10.00;6.60;;;13.70;99.90;;;;;;5038890;28;20438;-55
2023/09/25 07:14:08;;;;;;;11.03;7.27;;;13.60;99.90;;;;;;5038684;28;20457;-53
2023/09/25 07:16:35;;;;;;;20.37;9.60;;;13.90;99.90;;;;;;5038856;28;20488;-56
2023/09/25 07:19:03;;;;;;;9.90;6.80;;;;;;;;;;5038869;28;20570;-51
2023/09/25 07:21:32;;;;;;;12.70;7.27;;;14.10;99.90;;;;;;5038729;28;20409;-55
2023/09/25 07:23:58;;;;;;;10.43;6.67;;;13.90;99.90;;;;;;5038543;28;20495;-60
2023/09/25 07:26:27;;;;;;;12.50;9.17;;;14.00;99.90;;;;;;5038316;28;20453;-53
2023/09/25 07:28:53;;;;;;;12.33;7.37;;;14.30;99.90;;;;;;5038596;28;20460;-54
2023/09/25 07:31:22;;;;;;;8.10;6.17;;;14.60;99.90;;;;;;5038461;28;20465;-57
2023/09/25 07:33:49;;;;;;;8.97;7.40;;;;;;;;;;5038551;28;20420;-55
2023/09/25 07:36:20;;;;;;;9.30;6.20;;;14.70;99.90;;;;;;5038412;28;20451;-56
2023/09/25 07:38:52;;;;;;;10.87;6.83;;;14.90;99.90;;;;;;5038535;28;20406;-54
2023/09/25 07:41:24;;;;;;;13.27;7.70;;;14.90;99.90;;;;;;5038540;28;20445;-57
2023/09/25 07:43:54;;;;;;;7.73;6.07;;;15.20;99.90;;;;;;5038406;28;20457;-53
2023/09/25 07:46:21;;;;;;;6.27;5.60;;;15.20;99.90;;;;;;5038277;28;20521;-56
2023/09/25 07:48:48;;;;;;;11.03;6.67;;;15.40;99.90;;;;;;5038436;28;20409;-54
2023/09/25 07:51:15;;;;;;;7.77;6.53;;;15.60;99.90;;;;;;5038409;28;20488;-53
2023/09/25 07:53:44;;;;;;;8.67;6.20;;;15.80;99.90;;;;;;5037868;28;20498;-57
2023/09/25 07:56:12;;;;;;;7.30;5.60;;;;;;;;;;5032389;28;20538;-60
2023/09/25 07:58:39;;;;;;;8.63;5.70;;;16.10;99.90;;;;;;5014600;28;20461;-60
2023/09/25 08:01:08;;;;;;;12.03;6.53;;;15.90;99.90;;;;;;5014125;28;20484;-58
2023/09/25 08:03:37;;;;;;;7.27;5.40;;;16.90;99.90;;;;;;5014329;28;20481;-60
2023/09/25 08:06:06;;;;;;;8.80;6.07;;;16.20;99.90;;;;;;5014295;28;20535;-60
2023/09/25 08:08:33;;;;;;;6.50;5.60;;;16.10;99.90;;;;;;5014448;28;20445;-60
2023/09/25 08:11:01;;;;;;;6.30;4.43;;;16.40;99.90;;;;;;5014436;28;20468;-60
2023/09/25 08:13:29;;;;;;;6.00;4.50;;;;;;;;;;5014304;28;20526;-59
2023/09/25 08:15:57;;;;;;;5.93;5.07;;;16.60;99.90;;;;;;5014039;28;20468;-60
2023/09/25 08:18:26;;;;;;;7.70;4.87;;;17.10;99.90;;;;;;5031014;28;20433;-53
2023/09/25 08:20:53;;;;;;;7.63;4.87;;;18.00;99.90;;;;;;5038003;28;20449;-57
2023/09/25 08:23:20;;;;;;;8.90;4.73;;;19.20;99.90;;;;;;5038042;28;20413;-56
2023/09/25 08:25:48;;;;;;;4.33;3.93;;;19.30;99.90;;;;;;5038026;28;20437;-56
2023/09/25 08:28:15;;;;;;;5.37;4.20;;;;;;;;;;5038120;28;20417;-56
2023/09/25 08:30:42;;;;;;;4.43;3.50;;;22.50;99.90;;;;;;5037919;28;20405;-57
2023/09/25 08:33:15;;;;;;;10.67;4.23;;;23.80;99.90;;;;;;5037997;28;20444;-59
2023/09/25 08:35:44;;;;;;;4.97;3.30;;;25.20;99.90;;;;;;5037979;28;20445;-57
2023/09/25 08:38:11;;;;;;;5.23;3.83;;;26.80;99.90;;;;;;5038131;28;20414;-57
2023/09/25 08:40:45;;;;;;;4.77;3.50;;;29.10;90.50;;;;;;5041574;28;20413;-58
2023/09/25 08:43:13;;;;;;;3.73;3.43;;;29.10;90.30;;;;;;5041587;28;20409;-56
2023/09/25 08:45:45;;;;;;;5.13;3.70;;;30.60;74.70;;;;;;5041442;28;20432;-58
2023/09/25 08:48:16;;;;;;;4.40;4.00;;;30.50;75.40;;;;;;5041447;28;20452;-58
2023/09/25 08:50:48;;;;;;;6.73;4.00;;;31.10;72.20;;;;;;5041543;28;20413;-58
2023/09/25 08:53:22;;;;;;;7.20;3.57;;;32.10;63.30;;;;;;5041413;28;20410;-57
2023/09/25 08:55:52;;;;;;;4.13;3.73;;;32.10;91.10;;;;;;5041429;28;20410;-53
2023/09/25 08:58:19;;;;;;;4.43;4.00;;;32.10;62.10;;;;;;5041198;28;20416;-51
2023/09/25 09:00:47;;;;;;;4.10;3.80;;;32.10;60.20;;;;;;5041176;28;20428;-52
2023/09/25 09:03:14;;;;;;;4.47;3.37;;;32.20;59.40;;;;;;5041106;28;20420;-52
2023/09/25 09:05:44;;;;;;;7.40;6.70;;;31.90;58.30;;;;;;5041119;28;20444;-53
2023/09/25 09:08:15;;;;;;;6.30;4.13;;;31.70;86.50;;;;;;5040911;28;20413;-56
2023/09/25 09:10:49;;;;;;;5.90;3.37;;;31.70;58.90;;;;;;5040999;28;20410;-55
2023/09/25 09:13:25;;;;;;;3.80;3.37;;;31.80;58.40;;;;;;5040852;28;20489;-59
2023/09/25 09:15:53;;;;;;;4.10;3.70;;;;;;;;;;5041035;28;20413;-56
2023/09/25 09:18:22;;;;;;;3.90;3.50;;;31.20;56.80;;;;;;5034976;28;20907;-59
2023/09/25 09:20:51;;;;;;;4.23;3.77;;;29.30;91.10;;;;;;5023642;28;20453;-60
2023/09/25 09:23:18;;;;;;;4.00;3.60;;;28.60;61.40;;;;;;5016791;28;20441;-61
2023/09/25 09:25:46;;;;;;;5.17;4.20;;;26.60;94.90;;;;;;5016514;28;20492;-60
2023/09/25 09:28:14;;;;;;;4.70;4.30;;;26.40;67.80;;;;;;5016616;28;20926;-60
2023/09/25 09:30:42;;;;;;;3.60;3.30;;;25.20;73.30;;;;;;5016879;28;20511;-61
2023/09/25 09:33:10;;;;;;;5.90;4.27;;;25.80;96.80;;;;;;5016491;28;20562;-58
2023/09/25 09:35:43;;;;;;;4.17;3.77;;;;;;;;;;5016690;28;20441;-61
2023/09/25 09:38:12;;;;;;;5.13;2.87;;;26.80;71.50;;;;;;5016462;28;20437;-60
2023/09/25 09:40:41;;;;;;;4.03;3.37;;;28.00;69.10;;;;;;5016118;28;20523;-59
2023/09/25 09:43:09;;;;;;;5.30;3.83;;;28.90;69.40;;;;;;5016117;28;20509;-61
2023/09/25 09:45:38;;;;;;;7.03;4.00;;;30.50;60.10;;;;;;5016462;28;20485;-60
2023/09/25 09:48:07;;;;;;;6.03;4.10;;;30.90;89.60;;;;;;5016099;28;20504;-63
2023/09/25 09:50:35;;;;;;;5.00;3.27;;;30.80;61.30;;;;;;5015910;28;20488;-61
2023/09/25 09:53:06;;;;;;;4.97;3.40;;;31.50;58.80;;;;;;5016264;28;20955;-61
2023/09/25 09:55:37;;;;;;;8.33;4.50;;;31.90;57.20;;;;;;5016024;28;20440;-59
2023/09/25 09:58:05;;;;;;;5.30;4.80;;;32.10;56.50;;;;;;5016198;28;20547;-62
2023/09/25 10:00:32;;;;;;;8.40;3.60;;;31.90;56.60;;;;;;5015871;28;20448;-61
2023/09/25 10:02:59;;;;;;;4.20;3.80;;;32.00;56.50;;;;;;5015969;28;20492;-59
2023/09/25 10:05:27;;;;;;;5.20;3.53;;;32.00;56.10;;;;;;5015796;28;20480;-61
2023/09/25 10:08:06;;;;;;;3.93;3.53;;;32.00;56.20;;;;;;5015891;28;20457;-61
2023/09/25 10:10:36;;;;;;;10.60;3.80;;;31.80;56.30;;;;;;5015779;28;20528;-60
2023/09/25 10:13:08;;;;;;;5.13;3.83;;;32.00;84.20;;;;;;5015810;28;20473;-61
2023/09/25 10:15:38;;;;;;;4.23;2.93;;;32.00;55.00;;;;;;5015716;28;20465;-60
2023/09/25 10:18:07;;;;;;;3.80;3.50;;;31.70;55.10;;;;;;5015906;28;20954;-62
2023/09/25 10:20:41;;;;;;;3.40;3.10;;;31.40;83.20;;;;;;5015945;28;20535;-61
2023/09/25 10:23:11;;;;;;;3.67;3.37;;;31.10;55.10;;;;;;5015906;28;20780;-58
2023/09/25 10:25:53;;;;;;;5.30;3.67;;;31.00;55.40;;;;;;5015591;28;20480;-60
2023/09/25 10:28:25;;;;;;;3.50;3.20;;;31.10;55.60;;;;;;5015750;28;21022;-60
2023/09/25 10:30:56;;;;;;;3.50;3.10;;;31.00;84.40;;;;;;5015481;28;20444;-59
2023/09/25 10:33:23;;;;;;;3.20;2.90;;;30.90;84.60;;;;;;5015658;28;20568;-62
2023/09/25 10:35:52;;;;;;;6.10;5.00;;;31.10;54.90;;;;;;5015625;28;20454;-61
2023/09/25 10:38:22;;;;;;;5.43;3.50;;;30.80;56.60;;;;;;5015477;28;20815;-60
2023/09/25 10:40:51;;;;;;;4.10;3.70;;;30.40;56.30;;;;;;5015572;28;20452;-60
2023/09/25 10:43:20;;;;;;;3.53;2.80;;;29.90;87.30;;;;;;5037421;28;20445;-54
2023/09/25 10:45:48;;;;;;;6.23;3.70;;;29.70;57.40;;;;;;5038713;28;20473;-60
2023/09/25 10:48:15;;;;;;;3.83;3.20;;;;;;;;;;5035847;28;20453;-60
2023/09/25 10:50:44;;;;;;;4.37;3.97;;;28.60;58.10;;;;;;5023849;28;20441;-56
2023/09/25 10:53:11;;;;;;;6.83;3.13;;;28.10;89.90;;;;;;5019978;28;20524;-60
2023/09/25 10:55:39;;;;;;;9.23;4.30;;;28.10;91.40;;;;;;5031745;28;20449;-61
2023/09/25 10:58:12;;;;;;;9.73;3.80;;;27.60;61.90;;;;;;5018477;28;20457;-58
2023/09/25 11:00:41;;;;;;;4.90;3.57;;;27.00;62.70;;;;;;5035284;28;20456;-60
2023/09/25 11:03:08;;;;;;;3.43;3.10;;;;;;;;;;5026271;28;20500;-59
2023/09/25 11:05:38;;;;;;;3.30;3.00;;;26.30;64.90;;;;;;5015010;28;20488;-60
2023/09/25 11:08:07;;;;;;;4.47;3.37;;;26.40;93.30;;;;;;5015039;28;20860;-60
2023/09/25 11:10:37;;;;;;;3.73;3.33;;;26.30;67.00;;;;;;5029410;28;20433;-56
2023/09/25 11:13:04;;;;;;;8.23;3.27;;;25.70;94.20;;;;;;5038690;28;20445;-56
2023/09/25 11:15:36;;;;;;;3.23;2.93;;;25.40;95.10;;;;;;5038812;28;20426;-56
2023/09/25 11:18:04;;;;;;;3.87;3.30;;;25.20;91.90;;;;;;5038802;28;20437;-53
2023/09/25 11:20:39;;;;;;;7.27;6.13;;;24.90;92.90;;;;;;5038755;28;20432;-52
2023/09/25 11:23:09;;;;;;;5.80;3.80;;;25.00;96.40;;;;;;5038532;28;20479;-55
2023/09/25 11:25:41;;;;;;;3.50;3.17;;;24.80;95.30;;;;;;5038593;28;20448;-57
2023/09/25 11:28:08;;;;;;;3.57;3.27;;;24.10;96.20;;;;;;5038505;28;20445;-56
2023/09/25 11:30:38;;;;;;;4.47;3.27;;;23.90;96.90;;;;;;5038666;28;20414;-55
2023/09/25 11:33:07;;;;;;;4.27;3.60;;;23.50;97.60;;;;;;5038534;28;20408;-56
2023/09/25 11:35:37;;;;;;;4.60;3.37;;;23.60;74.50;;;;;;5038614;28;20413;-59
2023/09/25 11:38:12;;;;;;;4.63;3.93;;;24.00;98.20;;;;;;5038537;28;20433;-55
2023/09/25 11:40:40;;;;;;;3.50;3.20;;;23.50;76.90;;;;;;5038601;28;20401;-54
2023/09/25 11:43:07;;;;;;;7.33;2.97;;;23.70;99.50;;;;;;5038285;28;20417;-55
2023/09/25 11:45:36;;;;;;;3.60;3.30;;;23.50;99.90;;;;;;5038159;28;20445;-57
2023/09/25 11:48:04;;;;;;;4.00;3.30;;;23.40;99.00;;;;;;5038449;28;20481;-57
2023/09/25 11:50:33;;;;;;;4.00;3.40;;;23.10;98.90;;;;;;5038508;28;20470;-53
2023/09/25 11:53:00;;;;;;;5.50;3.73;;;;;;;;;;5038563;28;20410;-57
2023/09/25 11:55:28;;;;;;;4.97;3.17;;;23.20;99.60;;;;;;5038392;28;20417;-55
2023/09/25 11:57:55;;;;;;;4.33;3.33;;;23.70;99.10;;;;;;5038382;28;20416;-56
2023/09/25 12:00:27;;;;;;;4.20;3.07;;;23.40;99.90;;;;;;5038227;28;20433;-57
2023/09/25 12:02:56;;;;;;;2.77;2.57;;;23.10;99.90;;;;;;5038305;28;20413;-54
2023/09/25 12:05:24;;;;;;;3.83;3.10;;;23.30;80.70;;;;;;5038253;28;20473;-55
2023/09/25 12:07:51;;;;;;;5.10;2.80;;;23.40;99.90;;;;;;5038507;28;20417;-56
2023/09/25 12:10:20;;;;;;;3.97;3.10;;;23.20;81.10;;;;;;5038427;28;20437;-55
2023/09/25 12:12:48;;;;;;;3.40;3.10;;;23.10;99.90;;;;;;5038219;28;20444;-52
2023/09/25 12:15:16;;;;;;;3.87;3.07;;;23.10;82.20;;;;;;5041548;28;20412;-56
2023/09/25 12:17:45;;;;;;;7.30;2.87;;;25.60;84.40;;;;;;5042359;28;20408;-58
2023/09/25 12:20:14;;;;;;;3.00;2.80;;;23.20;82.60;;;;;;5042163;28;20449;-54
2023/09/25 12:22:42;;;;;;;3.10;2.80;;;23.20;83.10;;;;;;5042230;28;20490;-57
2023/09/25 12:25:11;;;;;;;3.83;3.20;;;23.20;83.30;;;;;;5041928;28;20484;-53
2023/09/25 12:27:39;;;;;;;3.80;2.70;;;23.20;83.00;;;;;;5042147;28;20409;-55
2023/09/25 12:30:10;;;;;;;3.20;2.90;;;23.20;83.10;;;;;;5042045;28;20538;-54
2023/09/25 12:32:38;;;;;;;4.33;3.20;;;23.20;99.90;;;;;;5042059;28;20401;-50
2023/09/25 12:35:14;;;;;;;6.40;3.30;;;23.20;83.80;;;;;;5041979;28;20532;-53
2023/09/25 12:37:43;;;;;;;7.40;2.67;;;23.30;85.20;;;;;;5041970;28;20417;-55
2023/09/25 12:40:11;;;;;;;3.13;2.83;;;23.50;85.40;;;;;;5041839;28;20444;-58
2023/09/25 12:42:39;;;;;;;3.00;2.80;;;23.60;83.60;;;;;;5041864;28;20401;-54
2023/09/25 12:45:07;;;;;;;3.87;2.60;;;23.60;85.10;;;;;;5041648;28;20497;-56
2023/09/25 12:47:37;;;;;;;3.77;2.70;;;23.80;81.90;;;;;;5041757;28;20409;-53
2023/09/25 12:50:05;;;;;;;3.40;3.17;;;23.80;82.60;;;;;;5041486;28;20452;-54
2023/09/25 12:52:34;;;;;;;3.13;2.83;;;;;;;;;;5041540;28;20438;-53
2023/09/25 13:00:08;;;;;;;3.30;2.80;;;24.10;99.90;;;;;;4976659;28;20509;-72
2023/09/25 13:02:38;;;;;;;14.43;4.50;;;23.90;82.30;;;;;;4977763;28;20482;-72
2023/09/25 13:05:06;;;;;;;4.73;3.63;;;24.00;83.60;;;;;;4977854;28;20493;-71